Time;durP1;ratioP1;P1;durP2;ratioP2;P2;SDS_P1;SDS_P2;PMS_P1;PMS_P2;Temp;Humidity;BMP_temperature;BMP_pressure;BME280_temperature;BME280_humidity;BME280_pressure;Samples;Min_cycle;Max_cycle;Signal;HPM_P1;HPM_P2
2022/04/30 00:04:36;;;;;;;0.20;0.10;;;17.80;99.90;;;;;;25384461;23;20492;-72
2022/04/30 00:14:41;;;;;;;0.20;0.10;;;18.10;99.90;;;;;;25411454;23;20412;-72
2022/04/30 00:24:45;;;;;;;0.20;0.10;;;18.00;99.90;;;;;;25382795;23;20207;-72
2022/04/30 00:34:51;;;;;;;0.20;0.10;;;18.00;99.90;;;;;;25410888;23;20321;-72
2022/04/30 00:44:55;;;;;;;0.20;0.07;;;18.00;99.90;;;;;;25409167;23;20195;-71
2022/04/30 00:55:03;;;;;;;0.20;0.10;;;18.00;99.90;;;;;;25409050;23;20219;-72
2022/04/30 01:05:07;;;;;;;0.20;0.10;;;18.20;99.90;;;;;;25406770;23;20191;-71
2022/04/30 01:15:13;;;;;;;0.20;0.10;;;18.10;99.90;;;;;;25406729;23;20171;-71
2022/04/30 01:25:20;;;;;;;0.20;0.10;;;17.80;99.90;;;;;;25406052;23;20202;-71
2022/04/30 01:45:49;;;;;;;0.20;0.10;;;17.20;99.90;;;;;;25403256;23;20184;-71
2022/04/30 01:55:53;;;;;;;0.20;0.10;;;17.30;99.90;;;;;;25382603;23;20406;-70
2022/04/30 02:05:59;;;;;;;0.20;0.10;;;17.20;99.90;;;;;;25402325;23;20402;-70
2022/04/30 02:16:03;;;;;;;0.20;0.10;;;16.80;99.90;;;;;;25379790;23;20191;-70
2022/04/30 02:26:09;;;;;;;0.20;0.10;;;16.90;99.90;;;;;;25404485;23;20263;-70
2022/04/30 02:36:13;;;;;;;0.20;0.10;;;16.60;99.90;;;;;;25403714;23;20187;-71
2022/04/30 02:46:19;;;;;;;0.20;0.10;;;16.20;99.90;;;;;;25405108;23;20192;-71
2022/04/30 02:56:23;;;;;;;0.20;0.10;;;16.00;99.90;;;;;;25410267;23;20227;-72
2022/04/30 03:06:29;;;;;;;0.20;0.10;;;15.90;99.90;;;;;;25413283;23;20191;-72
2022/04/30 03:26:56;;;;;;;0.20;0.10;;;15.60;99.90;;;;;;25408542;23;20187;-72
2022/04/30 03:36:59;;;;;;;0.20;0.10;;;15.20;99.90;;;;;;25385429;23;20175;-72
2022/04/30 03:47:05;;;;;;;0.20;0.10;;;15.20;99.90;;;;;;25382818;23;20187;-72
2022/04/30 03:57:09;;;;;;;0.20;0.10;;;14.90;99.90;;;;;;25384404;23;20210;-71
2022/04/30 04:07:14;;;;;;;0.20;0.00;;;14.70;99.90;;;;;;25408167;23;20192;-72
2022/04/30 04:27:41;;;;;;;0.20;0.00;;;14.60;99.90;;;;;;25382406;23;20183;-72
2022/04/30 04:37:45;;;;;;;0.20;0.00;;;14.40;99.90;;;;;;25409248;23;20167;-72
2022/04/30 04:47:51;;;;;;;0.20;0.00;;;14.40;99.90;;;;;;25406574;23;20207;-71
2022/04/30 04:57:55;;;;;;;0.20;0.07;;;14.60;99.90;;;;;;25409591;23;20199;-71
2022/04/30 05:08:01;;;;;;;0.20;0.00;;;14.50;99.90;;;;;;25405402;23;20192;-71
2022/04/30 05:18:05;;;;;;;0.20;0.03;;;14.60;99.90;;;;;;25380168;23;20174;-71
2022/04/30 05:28:11;;;;;;;0.27;0.17;;;14.80;99.90;;;;;;25404106;23;20202;-71
2022/04/30 05:38:15;;;;;;;0.20;0.10;;;14.90;99.90;;;;;;25406823;23;20187;-70
2022/04/30 05:48:20;;;;;;;0.20;0.10;;;15.20;99.90;;;;;;25404019;23;20207;-72
2022/04/30 05:58:24;;;;;;;0.20;0.10;;;15.60;99.90;;;;;;25379479;23;20196;-72
2022/04/30 06:08:29;;;;;;;0.20;0.10;;;16.40;99.90;;;;;;25405281;23;20202;-73
2022/04/30 06:18:33;;;;;;;0.20;0.10;;;17.00;99.90;;;;;;25403994;23;20186;-73
2022/04/30 06:28:58;;;;;;;0.20;0.10;;;17.30;99.90;;;;;;25400346;23;20213;-73
2022/04/30 06:39:02;;;;;;;0.20;0.10;;;17.60;99.90;;;;;;25401915;23;20175;-73
2022/04/30 06:49:08;;;;;;;0.20;0.13;;;18.00;99.90;;;;;;25401790;23;20195;-72
2022/04/30 06:59:12;;;;;;;0.20;0.10;;;18.10;99.90;;;;;;25402964;23;20199;-70
2022/04/30 07:09:17;;;;;;;0.20;0.10;;;18.40;99.90;;;;;;25399918;23;20218;-73
2022/04/30 07:19:21;;;;;;;0.20;0.10;;;18.60;99.90;;;;;;25402224;23;20223;-72
2022/04/30 07:29:26;;;;;;;0.20;0.10;;;18.80;99.90;;;;;;25377161;23;20206;-74
2022/04/30 07:39:30;;;;;;;0.20;0.10;;;18.90;99.90;;;;;;25378668;23;20223;-72
2022/04/30 07:49:36;;;;;;;0.20;0.00;;;18.80;99.90;;;;;;25375162;23;20191;-74
2022/04/30 07:59:40;;;;;;;0.20;0.10;;;18.90;99.90;;;;;;25403054;23;20227;-73
2022/04/30 08:09:45;;;;;;;0.20;0.00;;;19.00;99.90;;;;;;25377696;23;20230;-73
2022/04/30 08:19:49;;;;;;;0.20;0.10;;;19.20;99.90;;;;;;25402428;23;20171;-74
2022/04/30 08:29:54;;;;;;;0.20;0.10;;;19.70;99.90;;;;;;25402747;23;20195;-73
2022/04/30 08:39:58;;;;;;;0.20;0.10;;;19.60;99.90;;;;;;25374552;23;20171;-74
2022/04/30 08:50:03;;;;;;;0.67;0.67;;;19.70;99.90;;;;;;25400586;23;20414;-73
2022/04/30 09:00:08;;;;;;;0.20;0.10;;;19.80;99.90;;;;;;25374247;23;20207;-69
2022/04/30 09:10:22;;;;;;;0.20;0.10;;;19.70;99.90;;;;;;25399872;23;20531;-72
2022/04/30 09:20:27;;;;;;;0.20;0.10;;;20.00;99.90;;;;;;25374373;23;20190;-71
2022/04/30 09:30:32;;;;;;;0.20;0.20;;;20.10;99.90;;;;;;25400853;23;20192;-73
2022/04/30 09:40:37;;;;;;;0.20;0.10;;;20.50;99.90;;;;;;25399327;23;20172;-72
2022/04/30 10:01:05;;;;;;;0.20;0.10;;;21.30;99.90;;;;;;25397204;23;20167;-76
2022/04/30 10:11:23;;;;;;;0.20;0.10;;;20.60;99.90;;;;;;25401652;23;20473;-74
2022/04/30 10:21:26;;;;;;;0.20;0.10;;;20.90;99.90;;;;;;25376128;23;20191;-73
2022/04/30 10:31:42;;;;;;;0.77;0.47;;;21.40;99.90;;;;;;25396300;23;20672;-72
2022/04/30 10:41:46;;;;;;;0.63;0.63;;;21.50;99.90;;;;;;25374335;23;20543;-73
2022/04/30 10:51:56;;;;;;;0.20;0.10;;;21.80;99.90;;;;;;25375464;23;20211;-70
2022/04/30 11:02:01;;;;;;;0.20;0.10;;;22.10;99.90;;;;;;25396009;23;20188;-72
2022/04/30 11:12:08;;;;;;;0.20;0.10;;;22.70;99.90;;;;;;25375865;23;20275;-71
2022/04/30 11:22:13;;;;;;;0.20;0.00;;;22.80;99.90;;;;;;25406566;23;20188;-70
2022/04/30 11:32:22;;;;;;;0.20;0.00;;;23.60;99.90;;;;;;25407749;23;20199;-73
2022/04/30 11:42:26;;;;;;;0.20;0.00;;;24.00;99.90;;;;;;25403044;23;20223;-75
2022/04/30 11:52:32;;;;;;;0.20;0.00;;;24.10;99.90;;;;;;25405763;23;20286;-71
2022/04/30 12:02:39;;;;;;;0.20;0.00;;;24.20;99.90;;;;;;25406604;23;20449;-74
2022/04/30 12:12:45;;;;;;;0.38;0.38;;;24.90;99.90;;;;;;25348235;23;20233;-73
2022/04/30 12:33:07;;;;;;;0.20;0.08;;;24.70;99.90;;;;;;25379890;23;20175;-74
2022/04/30 12:43:12;;;;;;;0.32;0.32;;;25.30;99.90;;;;;;25406435;23;20222;-75
2022/04/30 12:53:17;;;;;;;0.20;0.10;;;24.90;99.90;;;;;;25404336;23;20199;-73
2022/04/30 13:03:21;;;;;;;0.55;0.55;;;24.90;99.90;;;;;;25406259;23;20184;-75
2022/04/30 13:13:32;;;;;;;0.20;0.00;;;24.60;99.90;;;;;;25411520;23;20179;-77
2022/04/30 13:23:37;;;;;;;0.20;0.00;;;24.00;99.90;;;;;;25383974;23;20587;-74
2022/04/30 13:33:42;;;;;;;0.20;0.00;;;25.00;99.90;;;;;;25409762;23;20190;-74
2022/04/30 13:43:46;;;;;;;0.20;0.00;;;26.00;99.90;;;;;;25383895;23;20190;-74
2022/04/30 13:53:53;;;;;;;0.20;0.00;;;25.60;99.90;;;;;;25404294;23;20196;-74
2022/04/30 14:03:58;;;;;;;0.20;0.10;;;25.80;99.90;;;;;;25405631;23;20194;-75
2022/04/30 14:24:29;;;;;;;0.20;0.10;;;23.70;99.90;;;;;;25408196;23;20183;-74
2022/04/30 14:34:34;;;;;;;0.20;0.00;;;22.80;99.90;;;;;;25407126;23;20164;-77
2022/04/30 14:44:42;;;;;;;0.20;0.00;;;21.90;99.90;;;;;;25408063;23;20195;-74
2022/04/30 14:54:47;;;;;;;0.20;0.00;;;21.60;99.90;;;;;;25387961;23;20210;-74
2022/04/30 15:04:51;;;;;;;0.20;0.10;;;22.00;99.90;;;;;;25405619;23;20199;-76
2022/04/30 15:14:56;;;;;;;0.20;0.00;;;21.40;99.90;;;;;;25410850;23;20198;-73
2022/04/30 15:25:00;;;;;;;0.20;0.07;;;20.60;99.90;;;;;;25409816;23;20184;-75
2022/04/30 15:35:06;;;;;;;0.20;0.10;;;20.80;99.90;;;;;;25411041;23;20167;-74
2022/04/30 15:45:10;;;;;;;0.20;0.10;;;20.70;99.90;;;;;;25382410;23;20195;-76
2022/04/30 15:55:15;;;;;;;0.20;0.10;;;20.50;99.90;;;;;;25409802;23;20203;-75
2022/04/30 16:05:19;;;;;;;0.20;0.10;;;20.50;99.90;;;;;;25408892;23;20235;-75
2022/04/30 16:15:27;;;;;;;0.20;0.10;;;20.30;99.90;;;;;;25410215;23;20171;-74
2022/04/30 16:25:31;;;;;;;0.20;0.10;;;20.20;99.90;;;;;;25406321;23;20198;-74
2022/04/30 16:35:37;;;;;;;0.20;0.10;;;20.20;99.90;;;;;;25403068;23;20175;-75
2022/04/30 16:45:41;;;;;;;0.20;0.10;;;20.20;99.90;;;;;;25406242;23;20254;-73
2022/04/30 17:06:08;;;;;;;0.20;0.00;;;19.20;99.90;;;;;;25405348;23;20210;-74
2022/04/30 17:16:13;;;;;;;0.20;0.00;;;19.10;99.90;;;;;;25383526;23;20171;-75
2022/04/30 17:26:21;;;;;;;0.20;0.10;;;18.90;99.90;;;;;;25407575;23;20202;-74
2022/04/30 17:47:02;;;;;;;0.20;0.17;;;18.80;99.90;;;;;;25153403;23;20198;-72
2022/04/30 17:57:09;;;;;;;0.20;0.10;;;18.80;99.90;;;;;;25402381;23;20211;-75
2022/04/30 18:07:13;;;;;;;0.20;0.10;;;19.00;99.90;;;;;;25378756;23;20206;-75
2022/04/30 18:17:19;;;;;;;0.20;0.10;;;19.00;99.90;;;;;;25405191;23;20179;-74
2022/04/30 18:27:22;;;;;;;0.20;0.00;;;19.00;99.90;;;;;;25403816;23;20191;-74
2022/04/30 18:37:28;;;;;;;0.20;0.10;;;19.00;99.90;;;;;;25378089;23;20179;-73
2022/04/30 18:47:31;;;;;;;0.20;0.00;;;18.90;99.90;;;;;;25379412;23;20262;-71
2022/04/30 19:08:00;;;;;;;0.20;0.10;;;18.90;99.90;;;;;;25402991;23;20187;-75
2022/04/30 19:18:05;;;;;;;0.20;0.07;;;18.80;99.90;;;;;;25405370;23;20168;-75
2022/04/30 19:28:11;;;;;;;0.20;0.00;;;18.80;99.90;;;;;;25375744;23;20195;-73
2022/04/30 19:38:16;;;;;;;0.20;0.00;;;18.70;99.90;;;;;;25408560;23;20215;-77
2022/04/30 19:48:20;;;;;;;0.20;0.00;;;18.60;99.90;;;;;;25408928;23;20199;-74
2022/04/30 19:58:26;;;;;;;0.20;0.00;;;18.40;99.90;;;;;;25360111;23;20207;-73
2022/04/30 20:08:31;;;;;;;0.20;0.00;;;18.50;99.90;;;;;;25382604;23;20545;-72
2022/04/30 20:18:36;;;;;;;0.20;0.10;;;18.50;99.90;;;;;;25377714;23;20175;-73
2022/04/30 20:28:40;;;;;;;0.20;0.00;;;18.50;99.90;;;;;;25380722;23;20192;-71
2022/04/30 20:38:45;;;;;;;0.20;0.00;;;18.60;99.90;;;;;;25389863;23;20172;-73
2022/04/30 20:48:49;;;;;;;3.43;1.50;;;18.40;99.90;;;;;;25396941;23;20390;-73
2022/04/30 20:58:54;;;;;;;0.20;0.00;;;18.30;99.90;;;;;;25393060;23;20211;-73
2022/04/30 21:08:59;;;;;;;0.20;0.10;;;18.40;99.90;;;;;;25393094;23;20203;-72
2022/04/30 21:19:05;;;;;;;0.20;0.00;;;18.30;99.90;;;;;;25391906;23;20149;-72
2022/04/30 21:29:10;;;;;;;0.20;0.00;;;18.40;99.90;;;;;;25366192;23;20270;-74
2022/04/30 21:39:15;;;;;;;0.20;0.10;;;18.40;99.90;;;;;;25388862;23;20191;-72
2022/04/30 21:49:18;;;;;;;0.20;0.00;;;18.30;99.90;;;;;;25366381;23;20203;-72
